sensor_id;sensor_type;location;lat;lon;timestamp;P1;durP1;ratioP1;P2;durP2;ratioP2
69005;SDS011;56061;51.748;19.620;2024-02-26T00:00:23;59.20;;;26.20;;
69005;SDS011;56061;51.748;19.620;2024-02-26T00:02:49;61.20;;;27.80;;
69005;SDS011;56061;51.748;19.620;2024-02-26T00:05:16;56.90;;;25.60;;
69005;SDS011;56061;51.748;19.620;2024-02-26T00:07:42;46.40;;;23.20;;
69005;SDS011;56061;51.748;19.620;2024-02-26T00:12:35;53.80;;;23.30;;
69005;SDS011;56061;51.748;19.620;2024-02-26T00:15:01;78.70;;;32.30;;
69005;SDS011;56061;51.748;19.620;2024-02-26T00:17:28;60.20;;;28.80;;
69005;SDS011;56061;51.748;19.620;2024-02-26T00:19:55;58.70;;;27.80;;
69005;SDS011;56061;51.748;19.620;2024-02-26T00:22:21;58.70;;;27.50;;
69005;SDS011;56061;51.748;19.620;2024-02-26T00:24:48;60.60;;;27.80;;
69005;SDS011;56061;51.748;19.620;2024-02-26T00:27:15;61.40;;;26.80;;
69005;SDS011;56061;51.748;19.620;2024-02-26T00:29:41;57.40;;;27.40;;
69005;SDS011;56061;51.748;19.620;2024-02-26T00:32:08;58.20;;;27.00;;
69005;SDS011;56061;51.748;19.620;2024-02-26T00:34:34;58.70;;;26.90;;
69005;SDS011;56061;51.748;19.620;2024-02-26T00:37:01;61.80;;;28.50;;
69005;SDS011;56061;51.748;19.620;2024-02-26T00:39:28;64.30;;;34.90;;
69005;SDS011;56061;51.748;19.620;2024-02-26T00:41:55;59.00;;;28.30;;
69005;SDS011;56061;51.748;19.620;2024-02-26T00:44:21;55.00;;;27.10;;
69005;SDS011;56061;51.748;19.620;2024-02-26T00:46:47;51.80;;;26.60;;
69005;SDS011;56061;51.748;19.620;2024-02-26T00:49:14;51.30;;;25.20;;
69005;SDS011;56061;51.748;19.620;2024-02-26T00:51:40;58.90;;;26.00;;
69005;SDS011;56061;51.748;19.620;2024-02-26T00:54:07;50.50;;;26.60;;
69005;SDS011;56061;51.748;19.620;2024-02-26T00:56:34;55.50;;;25.40;;
69005;SDS011;56061;51.748;19.620;2024-02-26T00:59:00;50.60;;;23.70;;
69005;SDS011;56061;51.748;19.620;2024-02-26T01:01:27;52.00;;;24.50;;
69005;SDS011;56061;51.748;19.620;2024-02-26T01:03:54;51.30;;;25.10;;
69005;SDS011;56061;51.748;19.620;2024-02-26T01:06:20;63.00;;;25.30;;
69005;SDS011;56061;51.748;19.620;2024-02-26T01:08:48;54.80;;;25.30;;
69005;SDS011;56061;51.748;19.620;2024-02-26T01:11:15;47.80;;;21.60;;
69005;SDS011;56061;51.748;19.620;2024-02-26T01:13:41;50.20;;;22.50;;
69005;SDS011;56061;51.748;19.620;2024-02-26T01:16:08;47.10;;;21.10;;
69005;SDS011;56061;51.748;19.620;2024-02-26T01:18:34;46.20;;;20.70;;
69005;SDS011;56061;51.748;19.620;2024-02-26T01:21:01;47.40;;;22.30;;
69005;SDS011;56061;51.748;19.620;2024-02-26T01:23:28;48.00;;;22.60;;
69005;SDS011;56061;51.748;19.620;2024-02-26T01:25:54;46.60;;;23.10;;
69005;SDS011;56061;51.748;19.620;2024-02-26T01:28:21;52.70;;;24.20;;
69005;SDS011;56061;51.748;19.620;2024-02-26T01:30:47;48.30;;;23.50;;
69005;SDS011;56061;51.748;19.620;2024-02-26T01:33:14;52.30;;;24.00;;
69005;SDS011;56061;51.748;19.620;2024-02-26T01:35:41;54.40;;;24.80;;
69005;SDS011;56061;51.748;19.620;2024-02-26T01:38:07;51.80;;;22.50;;
69005;SDS011;56061;51.748;19.620;2024-02-26T01:40:34;47.90;;;22.70;;
69005;SDS011;56061;51.748;19.620;2024-02-26T01:43:01;48.70;;;22.20;;
69005;SDS011;56061;51.748;19.620;2024-02-26T01:45:28;45.20;;;21.70;;
69005;SDS011;56061;51.748;19.620;2024-02-26T01:47:55;46.40;;;22.50;;
69005;SDS011;56061;51.748;19.620;2024-02-26T01:50:23;45.10;;;21.40;;
69005;SDS011;56061;51.748;19.620;2024-02-26T01:52:51;47.40;;;22.20;;
69005;SDS011;56061;51.748;19.620;2024-02-26T01:55:22;40.40;;;17.80;;
69005;SDS011;56061;51.748;19.620;2024-02-26T01:57:50;37.70;;;17.00;;
69005;SDS011;56061;51.748;19.620;2024-02-26T02:00:19;40.80;;;19.00;;
69005;SDS011;56061;51.748;19.620;2024-02-26T02:02:48;34.60;;;16.10;;
69005;SDS011;56061;51.748;19.620;2024-02-26T02:05:16;35.90;;;16.90;;
69005;SDS011;56061;51.748;19.620;2024-02-26T02:07:46;33.80;;;16.60;;
69005;SDS011;56061;51.748;19.620;2024-02-26T02:10:18;34.70;;;17.20;;
69005;SDS011;56061;51.748;19.620;2024-02-26T02:12:49;33.70;;;15.10;;
69005;SDS011;56061;51.748;19.620;2024-02-26T02:15:16;38.10;;;15.90;;
69005;SDS011;56061;51.748;19.620;2024-02-26T02:17:43;34.40;;;16.00;;
69005;SDS011;56061;51.748;19.620;2024-02-26T02:22:36;32.60;;;15.10;;
69005;SDS011;56061;51.748;19.620;2024-02-26T02:25:04;34.00;;;14.90;;
69005;SDS011;56061;51.748;19.620;2024-02-26T02:27:31;30.40;;;14.40;;
69005;SDS011;56061;51.748;19.620;2024-02-26T02:29:58;33.60;;;16.20;;
69005;SDS011;56061;51.748;19.620;2024-02-26T02:32:25;31.80;;;15.60;;
69005;SDS011;56061;51.748;19.620;2024-02-26T02:34:53;33.00;;;15.90;;
69005;SDS011;56061;51.748;19.620;2024-02-26T02:37:19;30.70;;;15.60;;
69005;SDS011;56061;51.748;19.620;2024-02-26T02:39:46;31.80;;;15.40;;
69005;SDS011;56061;51.748;19.620;2024-02-26T02:42:13;31.10;;;15.80;;
69005;SDS011;56061;51.748;19.620;2024-02-26T02:44:39;33.10;;;15.60;;
69005;SDS011;56061;51.748;19.620;2024-02-26T02:47:06;33.10;;;14.70;;
69005;SDS011;56061;51.748;19.620;2024-02-26T02:49:32;27.30;;;13.70;;
69005;SDS011;56061;51.748;19.620;2024-02-26T02:51:59;28.90;;;14.80;;
69005;SDS011;56061;51.748;19.620;2024-02-26T02:54:26;34.30;;;14.60;;
69005;SDS011;56061;51.748;19.620;2024-02-26T02:56:52;28.80;;;14.60;;
69005;SDS011;56061;51.748;19.620;2024-02-26T02:59:19;33.20;;;14.80;;
69005;SDS011;56061;51.748;19.620;2024-02-26T03:01:45;31.60;;;14.20;;
69005;SDS011;56061;51.748;19.620;2024-02-26T03:04:12;30.70;;;14.30;;
69005;SDS011;56061;51.748;19.620;2024-02-26T03:06:38;29.30;;;13.90;;
69005;SDS011;56061;51.748;19.620;2024-02-26T03:09:05;27.70;;;13.60;;
69005;SDS011;56061;51.748;19.620;2024-02-26T03:11:32;29.60;;;14.50;;
69005;SDS011;56061;51.748;19.620;2024-02-26T03:13:58;32.70;;;14.60;;
69005;SDS011;56061;51.748;19.620;2024-02-26T03:16:25;32.00;;;15.60;;
69005;SDS011;56061;51.748;19.620;2024-02-26T03:18:51;30.60;;;14.80;;
69005;SDS011;56061;51.748;19.620;2024-02-26T03:21:18;29.50;;;15.00;;
69005;SDS011;56061;51.748;19.620;2024-02-26T03:23:44;31.90;;;15.00;;
69005;SDS011;56061;51.748;19.620;2024-02-26T03:26:11;31.40;;;15.40;;
69005;SDS011;56061;51.748;19.620;2024-02-26T03:28:40;34.70;;;16.60;;
69005;SDS011;56061;51.748;19.620;2024-02-26T03:31:07;34.20;;;15.50;;
69005;SDS011;56061;51.748;19.620;2024-02-26T03:33:34;33.20;;;16.00;;
69005;SDS011;56061;51.748;19.620;2024-02-26T03:36:01;31.30;;;15.30;;
69005;SDS011;56061;51.748;19.620;2024-02-26T03:38:29;33.50;;;16.60;;
69005;SDS011;56061;51.748;19.620;2024-02-26T03:40:55;30.90;;;15.70;;
69005;SDS011;56061;51.748;19.620;2024-02-26T03:43:22;35.00;;;17.00;;
69005;SDS011;56061;51.748;19.620;2024-02-26T03:45:48;35.80;;;17.80;;
69005;SDS011;56061;51.748;19.620;2024-02-26T03:48:15;39.80;;;20.30;;
69005;SDS011;56061;51.748;19.620;2024-02-26T03:50:42;38.40;;;21.10;;
69005;SDS011;56061;51.748;19.620;2024-02-26T03:53:08;37.10;;;17.80;;
69005;SDS011;56061;51.748;19.620;2024-02-26T03:55:35;33.60;;;18.30;;
69005;SDS011;56061;51.748;19.620;2024-02-26T03:58:02;37.40;;;18.50;;
69005;SDS011;56061;51.748;19.620;2024-02-26T04:00:29;36.10;;;17.10;;
69005;SDS011;56061;51.748;19.620;2024-02-26T04:02:56;35.10;;;17.80;;
69005;SDS011;56061;51.748;19.620;2024-02-26T04:05:23;36.30;;;17.50;;
69005;SDS011;56061;51.748;19.620;2024-02-26T04:07:49;34.10;;;16.60;;
69005;SDS011;56061;51.748;19.620;2024-02-26T04:10:16;36.60;;;16.80;;
69005;SDS011;56061;51.748;19.620;2024-02-26T04:12:42;33.40;;;16.20;;
69005;SDS011;56061;51.748;19.620;2024-02-26T04:15:10;33.70;;;17.30;;
69005;SDS011;56061;51.748;19.620;2024-02-26T04:17:38;34.20;;;16.70;;
69005;SDS011;56061;51.748;19.620;2024-02-26T04:20:05;31.20;;;16.00;;
69005;SDS011;56061;51.748;19.620;2024-02-26T04:22:33;34.10;;;15.80;;
69005;SDS011;56061;51.748;19.620;2024-02-26T04:24:59;37.20;;;17.10;;
69005;SDS011;56061;51.748;19.620;2024-02-26T04:27:26;31.50;;;15.80;;
69005;SDS011;56061;51.748;19.620;2024-02-26T04:29:52;32.60;;;16.30;;
69005;SDS011;56061;51.748;19.620;2024-02-26T04:32:19;33.10;;;15.90;;
69005;SDS011;56061;51.748;19.620;2024-02-26T04:34:45;31.60;;;15.70;;
69005;SDS011;56061;51.748;19.620;2024-02-26T04:37:12;31.90;;;15.40;;
69005;SDS011;56061;51.748;19.620;2024-02-26T04:39:38;29.10;;;15.30;;
69005;SDS011;56061;51.748;19.620;2024-02-26T04:42:05;31.90;;;16.10;;
69005;SDS011;56061;51.748;19.620;2024-02-26T04:44:32;32.20;;;15.90;;
69005;SDS011;56061;51.748;19.620;2024-02-26T04:46:59;33.10;;;15.70;;
69005;SDS011;56061;51.748;19.620;2024-02-26T04:49:27;31.30;;;15.10;;
69005;SDS011;56061;51.748;19.620;2024-02-26T04:51:54;29.30;;;14.90;;
69005;SDS011;56061;51.748;19.620;2024-02-26T04:54:21;23.50;;;12.70;;
69005;SDS011;56061;51.748;19.620;2024-02-26T04:56:47;30.40;;;14.40;;
69005;SDS011;56061;51.748;19.620;2024-02-26T04:59:14;30.80;;;15.00;;
69005;SDS011;56061;51.748;19.620;2024-02-26T05:01:41;33.80;;;15.10;;
69005;SDS011;56061;51.748;19.620;2024-02-26T05:04:08;27.60;;;14.10;;
69005;SDS011;56061;51.748;19.620;2024-02-26T05:06:36;29.20;;;14.00;;
69005;SDS011;56061;51.748;19.620;2024-02-26T05:09:04;29.20;;;14.80;;
69005;SDS011;56061;51.748;19.620;2024-02-26T05:11:30;28.20;;;14.60;;
69005;SDS011;56061;51.748;19.620;2024-02-26T05:13:57;32.50;;;15.80;;
69005;SDS011;56061;51.748;19.620;2024-02-26T05:16:24;34.50;;;16.40;;
69005;SDS011;56061;51.748;19.620;2024-02-26T05:18:53;33.60;;;15.30;;
69005;SDS011;56061;51.748;19.620;2024-02-26T05:21:20;32.60;;;15.40;;
69005;SDS011;56061;51.748;19.620;2024-02-26T05:23:46;30.20;;;15.30;;
69005;SDS011;56061;51.748;19.620;2024-02-26T05:26:19;30.40;;;14.30;;
69005;SDS011;56061;51.748;19.620;2024-02-26T05:28:47;28.50;;;13.70;;
69005;SDS011;56061;51.748;19.620;2024-02-26T05:31:15;30.30;;;14.20;;
69005;SDS011;56061;51.748;19.620;2024-02-26T05:33:42;31.40;;;14.80;;
69005;SDS011;56061;51.748;19.620;2024-02-26T05:36:09;38.10;;;16.60;;
69005;SDS011;56061;51.748;19.620;2024-02-26T05:38:36;35.40;;;16.40;;
69005;SDS011;56061;51.748;19.620;2024-02-26T05:41:02;37.10;;;17.40;;
69005;SDS011;56061;51.748;19.620;2024-02-26T05:43:31;39.00;;;18.20;;
69005;SDS011;56061;51.748;19.620;2024-02-26T05:45:57;34.80;;;17.60;;
69005;SDS011;56061;51.748;19.620;2024-02-26T05:48:24;33.50;;;17.00;;
69005;SDS011;56061;51.748;19.620;2024-02-26T05:50:50;37.90;;;18.70;;
69005;SDS011;56061;51.748;19.620;2024-02-26T05:53:17;34.90;;;18.30;;
69005;SDS011;56061;51.748;19.620;2024-02-26T05:55:43;39.70;;;19.30;;
69005;SDS011;56061;51.748;19.620;2024-02-26T05:58:10;42.20;;;19.00;;
69005;SDS011;56061;51.748;19.620;2024-02-26T06:00:36;42.90;;;19.30;;
69005;SDS011;56061;51.748;19.620;2024-02-26T06:03:03;31.90;;;17.20;;
69005;SDS011;56061;51.748;19.620;2024-02-26T06:05:29;38.00;;;19.90;;
69005;SDS011;56061;51.748;19.620;2024-02-26T06:07:56;35.90;;;18.30;;
69005;SDS011;56061;51.748;19.620;2024-02-26T06:10:22;38.50;;;17.30;;
69005;SDS011;56061;51.748;19.620;2024-02-26T06:12:49;36.90;;;17.70;;
69005;SDS011;56061;51.748;19.620;2024-02-26T06:15:15;36.20;;;18.90;;
69005;SDS011;56061;51.748;19.620;2024-02-26T06:17:42;37.50;;;18.30;;
69005;SDS011;56061;51.748;19.620;2024-02-26T06:20:09;39.40;;;19.50;;
69005;SDS011;56061;51.748;19.620;2024-02-26T06:22:41;37.40;;;19.80;;
69005;SDS011;56061;51.748;19.620;2024-02-26T06:25:08;39.80;;;18.30;;
69005;SDS011;56061;51.748;19.620;2024-02-26T06:27:34;36.10;;;18.30;;
69005;SDS011;56061;51.748;19.620;2024-02-26T06:30:01;38.30;;;18.50;;
69005;SDS011;56061;51.748;19.620;2024-02-26T06:32:28;43.00;;;19.00;;
69005;SDS011;56061;51.748;19.620;2024-02-26T06:34:55;39.30;;;19.60;;
69005;SDS011;56061;51.748;19.620;2024-02-26T06:37:23;42.60;;;19.90;;
69005;SDS011;56061;51.748;19.620;2024-02-26T06:39:50;40.90;;;19.50;;
69005;SDS011;56061;51.748;19.620;2024-02-26T06:42:18;38.40;;;19.80;;
69005;SDS011;56061;51.748;19.620;2024-02-26T06:44:45;43.40;;;19.80;;
69005;SDS011;56061;51.748;19.620;2024-02-26T06:47:12;41.30;;;20.60;;
69005;SDS011;56061;51.748;19.620;2024-02-26T06:49:38;42.80;;;22.80;;
69005;SDS011;56061;51.748;19.620;2024-02-26T06:52:05;45.30;;;22.00;;
69005;SDS011;56061;51.748;19.620;2024-02-26T06:54:32;38.10;;;19.80;;
69005;SDS011;56061;51.748;19.620;2024-02-26T06:56:59;38.20;;;20.40;;
69005;SDS011;56061;51.748;19.620;2024-02-26T06:59:26;35.30;;;18.40;;
69005;SDS011;56061;51.748;19.620;2024-02-26T07:01:53;34.30;;;18.10;;
69005;SDS011;56061;51.748;19.620;2024-02-26T07:04:20;35.20;;;17.50;;
69005;SDS011;56061;51.748;19.620;2024-02-26T07:06:47;39.10;;;17.70;;
69005;SDS011;56061;51.748;19.620;2024-02-26T07:09:13;36.30;;;19.00;;
69005;SDS011;56061;51.748;19.620;2024-02-26T07:11:40;42.10;;;18.70;;
69005;SDS011;56061;51.748;19.620;2024-02-26T07:14:08;36.10;;;18.50;;
69005;SDS011;56061;51.748;19.620;2024-02-26T07:16:35;34.10;;;17.90;;
69005;SDS011;56061;51.748;19.620;2024-02-26T07:19:02;43.10;;;21.80;;
69005;SDS011;56061;51.748;19.620;2024-02-26T07:21:30;41.70;;;21.40;;
69005;SDS011;56061;51.748;19.620;2024-02-26T07:23:57;46.40;;;21.90;;
69005;SDS011;56061;51.748;19.620;2024-02-26T07:26:24;39.10;;;19.80;;
69005;SDS011;56061;51.748;19.620;2024-02-26T07:28:52;42.20;;;20.30;;
69005;SDS011;56061;51.748;19.620;2024-02-26T07:31:19;47.10;;;22.10;;
69005;SDS011;56061;51.748;19.620;2024-02-26T07:33:45;44.40;;;20.30;;
69005;SDS011;56061;51.748;19.620;2024-02-26T07:36:12;42.80;;;20.70;;
69005;SDS011;56061;51.748;19.620;2024-02-26T07:38:39;37.20;;;18.80;;
69005;SDS011;56061;51.748;19.620;2024-02-26T07:41:09;36.00;;;17.50;;
69005;SDS011;56061;51.748;19.620;2024-02-26T07:43:36;35.30;;;17.50;;
69005;SDS011;56061;51.748;19.620;2024-02-26T07:46:03;31.60;;;15.40;;
69005;SDS011;56061;51.748;19.620;2024-02-26T07:48:29;31.90;;;16.50;;
69005;SDS011;56061;51.748;19.620;2024-02-26T07:50:56;39.80;;;19.10;;
69005;SDS011;56061;51.748;19.620;2024-02-26T07:53:25;39.80;;;20.80;;
69005;SDS011;56061;51.748;19.620;2024-02-26T07:55:52;39.50;;;19.10;;
69005;SDS011;56061;51.748;19.620;2024-02-26T07:58:18;37.60;;;18.70;;
69005;SDS011;56061;51.748;19.620;2024-02-26T08:00:45;39.40;;;19.00;;
69005;SDS011;56061;51.748;19.620;2024-02-26T08:03:12;35.80;;;17.00;;
69005;SDS011;56061;51.748;19.620;2024-02-26T08:05:42;35.70;;;17.80;;
69005;SDS011;56061;51.748;19.620;2024-02-26T08:08:09;35.50;;;17.20;;
69005;SDS011;56061;51.748;19.620;2024-02-26T08:10:36;32.80;;;16.40;;
69005;SDS011;56061;51.748;19.620;2024-02-26T08:13:03;34.40;;;16.50;;
69005;SDS011;56061;51.748;19.620;2024-02-26T08:15:32;31.00;;;15.90;;
69005;SDS011;56061;51.748;19.620;2024-02-26T08:18:04;32.40;;;16.20;;
69005;SDS011;56061;51.748;19.620;2024-02-26T08:20:31;28.50;;;13.90;;
69005;SDS011;56061;51.748;19.620;2024-02-26T08:22:58;28.30;;;14.00;;
69005;SDS011;56061;51.748;19.620;2024-02-26T08:25:25;30.30;;;14.50;;
69005;SDS011;56061;51.748;19.620;2024-02-26T08:27:52;30.40;;;14.80;;
69005;SDS011;56061;51.748;19.620;2024-02-26T08:30:18;29.40;;;14.00;;
69005;SDS011;56061;51.748;19.620;2024-02-26T08:32:47;30.10;;;14.00;;
69005;SDS011;56061;51.748;19.620;2024-02-26T08:35:18;23.70;;;12.50;;
69005;SDS011;56061;51.748;19.620;2024-02-26T08:37:46;27.60;;;12.50;;
69005;SDS011;56061;51.748;19.620;2024-02-26T08:40:14;26.20;;;11.60;;
69005;SDS011;56061;51.748;19.620;2024-02-26T08:42:41;21.60;;;10.60;;
69005;SDS011;56061;51.748;19.620;2024-02-26T08:45:08;21.50;;;10.50;;
69005;SDS011;56061;51.748;19.620;2024-02-26T08:47:36;22.30;;;11.10;;
69005;SDS011;56061;51.748;19.620;2024-02-26T08:50:06;24.90;;;11.50;;
69005;SDS011;56061;51.748;19.620;2024-02-26T08:52:33;24.80;;;12.10;;
69005;SDS011;56061;51.748;19.620;2024-02-26T08:55:03;24.10;;;11.60;;
69005;SDS011;56061;51.748;19.620;2024-02-26T08:57:31;22.90;;;11.70;;
69005;SDS011;56061;51.748;19.620;2024-02-26T09:00:01;25.60;;;11.60;;
69005;SDS011;56061;51.748;19.620;2024-02-26T09:02:36;22.50;;;11.30;;
69005;SDS011;56061;51.748;19.620;2024-02-26T09:05:05;23.90;;;11.50;;
69005;SDS011;56061;51.748;19.620;2024-02-26T09:07:32;22.50;;;12.60;;
69005;SDS011;56061;51.748;19.620;2024-02-26T09:10:00;22.60;;;12.00;;
69005;SDS011;56061;51.748;19.620;2024-02-26T09:12:51;26.50;;;11.60;;
69005;SDS011;56061;51.748;19.620;2024-02-26T09:15:17;24.20;;;11.70;;
69005;SDS011;56061;51.748;19.620;2024-02-26T09:17:44;20.30;;;10.30;;
69005;SDS011;56061;51.748;19.620;2024-02-26T09:20:12;19.60;;;10.00;;
69005;SDS011;56061;51.748;19.620;2024-02-26T09:22:49;19.40;;;9.60;;
69005;SDS011;56061;51.748;19.620;2024-02-26T09:25:17;19.20;;;10.10;;
69005;SDS011;56061;51.748;19.620;2024-02-26T09:27:44;21.70;;;10.30;;
69005;SDS011;56061;51.748;19.620;2024-02-26T09:32:39;16.30;;;9.10;;
69005;SDS011;56061;51.748;19.620;2024-02-26T09:35:07;17.70;;;8.90;;
69005;SDS011;56061;51.748;19.620;2024-02-26T09:37:34;19.60;;;9.10;;
69005;SDS011;56061;51.748;19.620;2024-02-26T09:40:04;15.20;;;7.60;;
69005;SDS011;56061;51.748;19.620;2024-02-26T09:42:34;15.30;;;7.20;;
69005;SDS011;56061;51.748;19.620;2024-02-26T09:45:05;12.60;;;6.80;;
69005;SDS011;56061;51.748;19.620;2024-02-26T09:48:10;15.10;;;7.20;;
69005;SDS011;56061;51.748;19.620;2024-02-26T09:50:41;13.30;;;7.40;;
69005;SDS011;56061;51.748;19.620;2024-02-26T09:55:41;15.30;;;7.80;;
69005;SDS011;56061;51.748;19.620;2024-02-26T09:58:08;15.40;;;7.90;;
69005;SDS011;56061;51.748;19.620;2024-02-26T10:00:37;14.90;;;6.70;;
69005;SDS011;56061;51.748;19.620;2024-02-26T10:03:06;14.50;;;7.70;;
69005;SDS011;56061;51.748;19.620;2024-02-26T10:06:09;15.10;;;6.50;;
69005;SDS011;56061;51.748;19.620;2024-02-26T10:08:37;12.90;;;6.80;;
69005;SDS011;56061;51.748;19.620;2024-02-26T10:14:04;12.10;;;6.40;;
69005;SDS011;56061;51.748;19.620;2024-02-26T10:16:33;13.30;;;6.40;;
69005;SDS011;56061;51.748;19.620;2024-02-26T10:21:39;11.40;;;6.40;;
69005;SDS011;56061;51.748;19.620;2024-02-26T10:26:46;11.00;;;5.50;;
69005;SDS011;56061;51.748;19.620;2024-02-26T10:29:37;11.40;;;6.00;;
69005;SDS011;56061;51.748;19.620;2024-02-26T10:32:03;11.60;;;5.80;;
69005;SDS011;56061;51.748;19.620;2024-02-26T10:34:30;11.60;;;5.80;;
69005;SDS011;56061;51.748;19.620;2024-02-26T10:37:12;11.80;;;5.60;;
69005;SDS011;56061;51.748;19.620;2024-02-26T10:39:46;9.60;;;5.10;;
69005;SDS011;56061;51.748;19.620;2024-02-26T10:42:14;11.00;;;5.40;;
69005;SDS011;56061;51.748;19.620;2024-02-26T10:44:41;13.20;;;6.10;;
69005;SDS011;56061;51.748;19.620;2024-02-26T10:50:05;10.70;;;5.50;;
69005;SDS011;56061;51.748;19.620;2024-02-26T10:52:35;10.90;;;5.00;;
69005;SDS011;56061;51.748;19.620;2024-02-26T10:55:06;9.10;;;5.40;;
69005;SDS011;56061;51.748;19.620;2024-02-26T10:57:39;9.00;;;4.20;;
69005;SDS011;56061;51.748;19.620;2024-02-26T11:00:08;10.10;;;4.70;;
69005;SDS011;56061;51.748;19.620;2024-02-26T11:02:40;10.70;;;4.60;;
69005;SDS011;56061;51.748;19.620;2024-02-26T11:08:04;8.80;;;3.40;;
69005;SDS011;56061;51.748;19.620;2024-02-26T11:10:32;8.20;;;3.90;;
69005;SDS011;56061;51.748;19.620;2024-02-26T11:13:10;7.60;;;4.30;;
69005;SDS011;56061;51.748;19.620;2024-02-26T11:15:39;8.80;;;3.90;;
69005;SDS011;56061;51.748;19.620;2024-02-26T11:18:07;8.10;;;3.80;;
69005;SDS011;56061;51.748;19.620;2024-02-26T11:20:38;7.50;;;3.70;;
69005;SDS011;56061;51.748;19.620;2024-02-26T11:26:04;12.10;;;5.60;;
69005;SDS011;56061;51.748;19.620;2024-02-26T11:28:33;12.70;;;5.70;;
69005;SDS011;56061;51.748;19.620;2024-02-26T11:31:07;11.00;;;5.50;;
69005;SDS011;56061;51.748;19.620;2024-02-26T11:33:35;11.40;;;6.00;;
69005;SDS011;56061;51.748;19.620;2024-02-26T11:36:08;11.90;;;6.10;;
69005;SDS011;56061;51.748;19.620;2024-02-26T11:38:37;11.30;;;6.10;;
69005;SDS011;56061;51.748;19.620;2024-02-26T11:41:07;11.00;;;5.70;;
69005;SDS011;56061;51.748;19.620;2024-02-26T11:43:50;10.90;;;5.50;;
69005;SDS011;56061;51.748;19.620;2024-02-26T11:47:09;14.90;;;7.60;;
69005;SDS011;56061;51.748;19.620;2024-02-26T11:49:39;14.80;;;8.00;;
69005;SDS011;56061;51.748;19.620;2024-02-26T11:52:08;13.90;;;8.20;;
69005;SDS011;56061;51.748;19.620;2024-02-26T11:55:08;14.10;;;7.00;;
69005;SDS011;56061;51.748;19.620;2024-02-26T11:57:39;13.30;;;6.40;;
69005;SDS011;56061;51.748;19.620;2024-02-26T12:02:46;10.80;;;4.90;;
69005;SDS011;56061;51.748;19.620;2024-02-26T12:05:17;9.70;;;4.80;;
69005;SDS011;56061;51.748;19.620;2024-02-26T12:07:55;10.00;;;5.50;;
69005;SDS011;56061;51.748;19.620;2024-02-26T12:10:38;8.90;;;4.70;;
69005;SDS011;56061;51.748;19.620;2024-02-26T12:18:34;8.00;;;3.60;;
69005;SDS011;56061;51.748;19.620;2024-02-26T12:21:02;7.50;;;3.80;;
69005;SDS011;56061;51.748;19.620;2024-02-26T12:23:30;7.40;;;3.80;;
69005;SDS011;56061;51.748;19.620;2024-02-26T12:26:00;9.90;;;4.40;;
69005;SDS011;56061;51.748;19.620;2024-02-26T12:28:59;8.20;;;4.00;;
69005;SDS011;56061;51.748;19.620;2024-02-26T12:31:26;8.00;;;3.60;;
69005;SDS011;56061;51.748;19.620;2024-02-26T12:33:54;7.30;;;4.00;;
69005;SDS011;56061;51.748;19.620;2024-02-26T12:36:47;9.70;;;4.30;;
69005;SDS011;56061;51.748;19.620;2024-02-26T12:39:13;9.10;;;4.90;;
69005;SDS011;56061;51.748;19.620;2024-02-26T12:41:40;8.70;;;4.40;;
69005;SDS011;56061;51.748;19.620;2024-02-26T12:44:07;6.70;;;3.30;;
69005;SDS011;56061;51.748;19.620;2024-02-26T12:46:34;8.70;;;3.30;;
69005;SDS011;56061;51.748;19.620;2024-02-26T12:49:01;6.50;;;3.00;;
69005;SDS011;56061;51.748;19.620;2024-02-26T12:51:29;6.30;;;3.30;;
69005;SDS011;56061;51.748;19.620;2024-02-26T12:53:56;5.40;;;2.80;;
69005;SDS011;56061;51.748;19.620;2024-02-26T12:56:23;7.10;;;3.50;;
69005;SDS011;56061;51.748;19.620;2024-02-26T12:59:02;6.00;;;2.90;;
69005;SDS011;56061;51.748;19.620;2024-02-26T13:01:30;6.60;;;3.10;;
69005;SDS011;56061;51.748;19.620;2024-02-26T13:03:57;6.40;;;2.90;;
69005;SDS011;56061;51.748;19.620;2024-02-26T13:06:25;7.20;;;3.20;;
69005;SDS011;56061;51.748;19.620;2024-02-26T13:08:56;7.80;;;3.40;;
69005;SDS011;56061;51.748;19.620;2024-02-26T13:11:42;7.00;;;3.90;;
69005;SDS011;56061;51.748;19.620;2024-02-26T13:16:39;5.70;;;3.20;;
69005;SDS011;56061;51.748;19.620;2024-02-26T13:21:44;6.10;;;2.90;;
69005;SDS011;56061;51.748;19.620;2024-02-26T13:26:38;6.00;;;2.80;;
69005;SDS011;56061;51.748;19.620;2024-02-26T13:29:05;6.40;;;2.80;;
69005;SDS011;56061;51.748;19.620;2024-02-26T13:31:44;6.10;;;2.90;;
69005;SDS011;56061;51.748;19.620;2024-02-26T13:34:11;7.60;;;3.70;;
69005;SDS011;56061;51.748;19.620;2024-02-26T13:36:37;7.10;;;3.10;;
69005;SDS011;56061;51.748;19.620;2024-02-26T13:39:04;9.50;;;3.30;;
69005;SDS011;56061;51.748;19.620;2024-02-26T13:41:31;7.30;;;3.00;;
69005;SDS011;56061;51.748;19.620;2024-02-26T13:44:09;6.80;;;3.10;;
69005;SDS011;56061;51.748;19.620;2024-02-26T13:46:35;6.30;;;3.40;;
69005;SDS011;56061;51.748;19.620;2024-02-26T13:49:02;7.40;;;2.90;;
69005;SDS011;56061;51.748;19.620;2024-02-26T13:51:29;6.60;;;3.30;;
69005;SDS011;56061;51.748;19.620;2024-02-26T13:54:01;7.50;;;3.30;;
69005;SDS011;56061;51.748;19.620;2024-02-26T13:56:37;8.20;;;3.40;;
69005;SDS011;56061;51.748;19.620;2024-02-26T13:59:04;6.40;;;3.10;;
69005;SDS011;56061;51.748;19.620;2024-02-26T14:01:31;7.20;;;2.90;;
69005;SDS011;56061;51.748;19.620;2024-02-26T14:03:59;5.90;;;3.10;;
69005;SDS011;56061;51.748;19.620;2024-02-26T14:06:35;6.10;;;3.40;;
69005;SDS011;56061;51.748;19.620;2024-02-26T14:09:07;8.40;;;3.40;;
69005;SDS011;56061;51.748;19.620;2024-02-26T14:11:34;8.30;;;4.20;;
69005;SDS011;56061;51.748;19.620;2024-02-26T14:14:01;8.70;;;4.60;;
69005;SDS011;56061;51.748;19.620;2024-02-26T14:16:27;7.80;;;4.00;;
69005;SDS011;56061;51.748;19.620;2024-02-26T14:19:07;7.70;;;3.80;;
69005;SDS011;56061;51.748;19.620;2024-02-26T14:21:35;8.70;;;4.00;;
69005;SDS011;56061;51.748;19.620;2024-02-26T14:24:02;8.80;;;4.30;;
69005;SDS011;56061;51.748;19.620;2024-02-26T14:26:30;8.10;;;3.90;;
69005;SDS011;56061;51.748;19.620;2024-02-26T14:28:56;7.70;;;4.30;;
69005;SDS011;56061;51.748;19.620;2024-02-26T14:31:37;8.30;;;4.10;;
69005;SDS011;56061;51.748;19.620;2024-02-26T14:34:04;7.60;;;4.10;;
69005;SDS011;56061;51.748;19.620;2024-02-26T14:36:30;9.20;;;4.70;;
69005;SDS011;56061;51.748;19.620;2024-02-26T14:38:57;8.40;;;4.20;;
69005;SDS011;56061;51.748;19.620;2024-02-26T14:41:36;8.90;;;4.20;;
69005;SDS011;56061;51.748;19.620;2024-02-26T14:44:02;8.70;;;4.40;;
69005;SDS011;56061;51.748;19.620;2024-02-26T14:46:29;9.90;;;4.10;;
69005;SDS011;56061;51.748;19.620;2024-02-26T14:48:56;9.10;;;4.80;;
69005;SDS011;56061;51.748;19.620;2024-02-26T14:51:22;10.50;;;4.70;;
69005;SDS011;56061;51.748;19.620;2024-02-26T14:53:58;7.90;;;4.30;;
69005;SDS011;56061;51.748;19.620;2024-02-26T14:56:27;8.40;;;4.60;;
69005;SDS011;56061;51.748;19.620;2024-02-26T14:58:53;9.70;;;5.20;;
69005;SDS011;56061;51.748;19.620;2024-02-26T15:01:20;10.30;;;4.90;;
69005;SDS011;56061;51.748;19.620;2024-02-26T15:03:47;9.30;;;4.70;;
69005;SDS011;56061;51.748;19.620;2024-02-26T15:06:39;9.70;;;5.40;;